createdAt,value
2023-03-19T00:00:28.119Z,15.00
2023-03-19T00:02:54.932Z,13.70
2023-03-19T00:05:21.669Z,13.48
2023-03-19T00:07:48.328Z,13.05
2023-03-19T00:10:15.080Z,13.80
2023-03-19T00:12:41.971Z,14.30
2023-03-19T00:15:14.024Z,13.05
2023-03-19T00:17:42.026Z,13.23
2023-03-19T00:20:11.021Z,13.27
2023-03-19T00:22:37.682Z,13.68
2023-03-19T00:25:04.644Z,13.20
2023-03-19T00:27:31.467Z,12.02
2023-03-19T00:29:58.228Z,13.25
2023-03-19T00:32:25.505Z,13.30
2023-03-19T00:34:52.179Z,11.25
2023-03-19T00:37:18.938Z,12.23
2023-03-19T00:39:45.559Z,12.30
2023-03-19T00:42:12.404Z,11.82
2023-03-19T00:44:39.036Z,11.82
2023-03-19T00:47:07.333Z,12.10
2023-03-19T00:49:33.974Z,10.88
2023-03-19T00:52:01.204Z,11.95
2023-03-19T00:54:32.452Z,10.93
2023-03-19T00:56:59.165Z,12.05
2023-03-19T00:59:26.368Z,11.02
2023-03-19T01:01:53.022Z,10.80
2023-03-19T01:04:19.725Z,10.95
2023-03-19T01:06:46.366Z,11.27
2023-03-19T01:09:13.004Z,12.00
2023-03-19T01:11:39.619Z,10.63
2023-03-19T01:14:06.401Z,10.48
2023-03-19T01:16:34.699Z,10.50
2023-03-19T01:19:02.126Z,9.80
2023-03-19T01:21:31.050Z,9.65
2023-03-19T01:23:58.647Z,10.05
2023-03-19T01:26:25.515Z,10.80
2023-03-19T01:28:52.537Z,10.07
2023-03-19T01:31:19.543Z,10.13
2023-03-19T01:33:46.547Z,10.63
2023-03-19T01:36:13.764Z,9.82
2023-03-19T01:38:40.510Z,10.43
2023-03-19T01:41:07.732Z,10.40
2023-03-19T01:43:34.387Z,10.30
2023-03-19T01:46:07.772Z,10.13
2023-03-19T01:48:51.677Z,10.50
2023-03-19T01:51:23.444Z,10.10
2023-03-19T01:53:53.902Z,10.20
2023-03-19T01:56:24.158Z,10.20
2023-03-19T01:58:56.640Z,10.63
2023-03-19T02:01:23.802Z,10.00
2023-03-19T02:03:53.014Z,11.43
2023-03-19T02:06:22.013Z,11.50
2023-03-19T02:08:53.648Z,10.52
2023-03-19T02:11:20.961Z,10.60
2023-03-19T02:13:48.256Z,10.38
2023-03-19T02:16:16.030Z,10.40
2023-03-19T02:18:43.122Z,9.95
2023-03-19T02:21:15.010Z,11.63
2023-03-19T02:24:12.283Z,11.13
2023-03-19T02:26:41.370Z,10.23
2023-03-19T02:29:08.012Z,12.10
2023-03-19T02:31:34.699Z,11.25
2023-03-19T02:34:07.449Z,12.15
2023-03-19T02:36:39.130Z,11.23
2023-03-19T02:39:12.091Z,10.75
2023-03-19T02:41:41.542Z,10.88
2023-03-19T02:44:11.792Z,11.68
2023-03-19T02:46:38.485Z,12.05
2023-03-19T02:49:05.397Z,11.65
2023-03-19T02:51:32.081Z,11.93
2023-03-19T02:54:00.919Z,10.77
2023-03-19T02:56:27.698Z,11.80
2023-03-19T02:58:54.397Z,12.48
2023-03-19T03:01:21.168Z,11.80
2023-03-19T03:03:47.831Z,12.48
2023-03-19T03:06:14.492Z,11.80
2023-03-19T03:08:41.306Z,12.15
2023-03-19T03:11:07.921Z,13.10
2023-03-19T03:13:34.912Z,11.63
2023-03-19T03:16:01.987Z,12.45
2023-03-19T03:18:28.629Z,13.27
2023-03-19T03:20:55.377Z,12.30
2023-03-19T03:23:22.131Z,11.48
2023-03-19T03:25:51.339Z,12.13
2023-03-19T03:28:19.143Z,11.95
2023-03-19T03:30:46.567Z,12.07
2023-03-19T03:33:13.180Z,10.93
2023-03-19T03:35:40.001Z,11.15
2023-03-19T03:38:06.778Z,11.55
2023-03-19T03:40:34.530Z,11.27
2023-03-19T03:43:01.417Z,11.18
2023-03-19T03:45:28.074Z,11.30
2023-03-19T03:47:54.750Z,11.00
2023-03-19T03:50:21.727Z,11.50
2023-03-19T03:52:48.336Z,11.55
2023-03-19T03:55:15.298Z,11.90
2023-03-19T03:57:41.940Z,11.75
2023-03-19T04:00:09.580Z,10.88
2023-03-19T04:02:36.253Z,11.85
2023-03-19T04:05:02.988Z,11.43
2023-03-19T04:07:29.619Z,11.07
2023-03-19T04:09:58.366Z,10.73
2023-03-19T04:12:25.432Z,11.45
2023-03-19T04:14:52.105Z,12.18
2023-03-19T04:17:18.947Z,10.65
2023-03-19T04:19:45.782Z,10.77
2023-03-19T04:22:12.841Z,10.13
2023-03-19T04:24:39.479Z,11.75
2023-03-19T04:27:07.327Z,11.38
2023-03-19T04:29:34.217Z,12.30
2023-03-19T04:32:00.877Z,11.52
2023-03-19T04:34:27.534Z,10.20
2023-03-19T04:36:54.167Z,10.57
2023-03-19T04:39:20.793Z,11.15
2023-03-19T04:41:47.596Z,10.85
2023-03-19T04:44:14.215Z,11.02
2023-03-19T04:46:40.860Z,10.43
2023-03-19T04:49:08.111Z,11.95
2023-03-19T04:51:34.761Z,11.50
2023-03-19T04:54:01.459Z,12.05
2023-03-19T04:56:31.378Z,13.73
2023-03-19T04:58:58.186Z,13.25
2023-03-19T05:01:25.101Z,11.98
2023-03-19T05:03:52.154Z,11.90
2023-03-19T05:06:20.016Z,11.85
2023-03-19T05:08:47.157Z,10.45
2023-03-19T05:11:13.810Z,11.25
2023-03-19T05:13:40.454Z,12.63
2023-03-19T05:16:07.356Z,11.93
2023-03-19T05:18:34.471Z,11.75
2023-03-19T05:21:01.124Z,12.00
2023-03-19T05:23:27.739Z,12.00
2023-03-19T05:25:54.711Z,11.77
2023-03-19T05:28:21.451Z,11.18
2023-03-19T05:30:48.150Z,12.25
2023-03-19T05:33:14.878Z,12.23
2023-03-19T05:35:41.637Z,13.43
2023-03-19T05:38:08.277Z,13.15
2023-03-19T05:40:36.104Z,12.43
2023-03-19T05:43:03.329Z,14.07
2023-03-19T05:45:30.816Z,12.00
2023-03-19T05:47:57.451Z,11.15
2023-03-19T05:50:24.098Z,11.85
2023-03-19T05:52:50.773Z,12.02
2023-03-19T05:55:17.621Z,11.93
2023-03-19T05:57:44.380Z,12.20
2023-03-19T06:00:12.214Z,12.45
2023-03-19T06:02:39.352Z,13.15
2023-03-19T06:05:06.565Z,12.70
2023-03-19T06:07:33.215Z,12.57
2023-03-19T06:10:04.390Z,12.75
2023-03-19T06:12:31.211Z,12.18
2023-03-19T06:14:57.791Z,12.85
2023-03-19T06:17:24.509Z,12.50
2023-03-19T06:19:51.113Z,12.93
2023-03-19T06:22:17.733Z,12.20
2023-03-19T06:24:44.354Z,13.52
2023-03-19T06:27:11.148Z,13.00
2023-03-19T06:29:37.853Z,12.85
2023-03-19T06:32:04.799Z,13.02
2023-03-19T06:34:31.429Z,12.65
2023-03-19T06:36:58.083Z,14.32
2023-03-19T06:39:24.815Z,12.68
2023-03-19T06:41:51.569Z,14.65
2023-03-19T06:44:18.373Z,13.52
2023-03-19T06:46:45.114Z,13.45
2023-03-19T06:49:11.774Z,14.70
2023-03-19T06:51:38.435Z,12.52
2023-03-19T06:54:05.055Z,13.55
2023-03-19T06:56:31.684Z,11.77
2023-03-19T06:58:58.277Z,13.55
2023-03-19T07:01:25.201Z,13.02
2023-03-19T07:03:51.917Z,12.25
2023-03-19T07:06:18.559Z,12.20
2023-03-19T07:08:46.558Z,12.35
2023-03-19T07:11:14.093Z,11.05
2023-03-19T07:13:41.111Z,11.07
2023-03-19T07:16:08.839Z,10.93
2023-03-19T07:18:35.877Z,10.82
2023-03-19T07:21:02.564Z,12.40
2023-03-19T07:23:29.209Z,11.20
2023-03-19T07:25:55.952Z,11.10
2023-03-19T07:28:23.129Z,11.40
2023-03-19T07:30:53.026Z,11.77
2023-03-19T07:33:20.427Z,10.63
2023-03-19T07:35:47.112Z,12.38
2023-03-19T07:38:14.738Z,11.57
2023-03-19T07:40:45.541Z,10.73
2023-03-19T07:43:18.063Z,11.63
2023-03-19T07:45:44.748Z,11.05
2023-03-19T07:48:12.550Z,11.25
2023-03-19T07:50:39.298Z,10.95
2023-03-19T07:53:06.441Z,11.93
2023-03-19T07:55:33.138Z,11.20
2023-03-19T07:58:00.012Z,11.30
2023-03-19T08:00:27.424Z,11.68
2023-03-19T08:02:54.070Z,10.52
2023-03-19T08:05:20.717Z,11.90
2023-03-19T08:07:49.502Z,11.30
2023-03-19T08:10:16.335Z,11.23
2023-03-19T08:12:42.987Z,12.25
2023-03-19T08:15:11.672Z,12.43
2023-03-19T08:17:38.976Z,12.05
2023-03-19T08:20:09.561Z,10.82
2023-03-19T08:22:37.670Z,11.60
2023-03-19T08:25:06.886Z,11.48
2023-03-19T08:27:35.752Z,12.82
2023-03-19T08:30:04.530Z,12.05
2023-03-19T08:32:31.210Z,12.55
2023-03-19T08:34:58.100Z,11.23
2023-03-19T08:37:24.810Z,11.73
2023-03-19T08:39:52.295Z,11.35
2023-03-19T08:42:20.141Z,11.80
2023-03-19T08:44:46.897Z,11.60
2023-03-19T08:47:13.518Z,10.82
2023-03-19T08:49:40.844Z,11.60
2023-03-19T08:52:08.407Z,12.88
2023-03-19T08:54:36.242Z,11.23
2023-03-19T08:57:07.329Z,11.80
2023-03-19T08:59:34.364Z,11.20
2023-03-19T09:02:01.731Z,12.13
2023-03-19T09:04:29.124Z,11.98
2023-03-19T09:06:56.123Z,10.82
2023-03-19T09:09:24.763Z,11.85
2023-03-19T09:11:51.495Z,11.68
2023-03-19T09:14:20.006Z,11.60
2023-03-19T09:16:46.837Z,11.75
2023-03-19T09:19:13.604Z,12.05
2023-03-19T09:21:40.558Z,10.57
2023-03-19T09:24:07.711Z,11.38
2023-03-19T09:26:34.505Z,12.05
2023-03-19T09:29:02.227Z,10.85
2023-03-19T09:31:29.843Z,12.20
2023-03-19T09:33:57.130Z,11.52
2023-03-19T09:36:24.059Z,11.70
2023-03-19T09:38:50.714Z,11.55
2023-03-19T09:41:17.410Z,11.88
2023-03-19T09:43:59.342Z,11.85
2023-03-19T09:46:35.128Z,12.07
2023-03-19T09:49:15.598Z,11.65
2023-03-19T09:51:58.376Z,12.35
2023-03-19T09:54:33.664Z,13.13
2023-03-19T09:57:01.255Z,12.02
2023-03-19T09:59:29.457Z,11.90
2023-03-19T10:02:24.158Z,12.18
2023-03-19T10:05:07.821Z,11.73
2023-03-19T10:07:36.722Z,12.30
2023-03-19T10:10:38.333Z,11.30
2023-03-19T10:13:20.342Z,12.45
2023-03-19T10:15:47.584Z,11.90
2023-03-19T10:18:21.049Z,11.18
2023-03-19T10:21:06.319Z,12.45
2023-03-19T10:23:52.602Z,12.07
2023-03-19T10:26:21.721Z,11.50
2023-03-19T10:29:02.591Z,12.70
2023-03-19T10:31:43.094Z,12.10
2023-03-19T10:34:29.338Z,12.70
2023-03-19T10:37:16.560Z,13.00
2023-03-19T10:39:45.961Z,12.57
2023-03-19T10:42:39.420Z,12.40
2023-03-19T10:45:26.686Z,14.07
2023-03-19T10:47:56.161Z,12.45
2023-03-19T10:50:30.298Z,12.27
2023-03-19T10:53:18.036Z,12.43
2023-03-19T10:55:50.911Z,13.00
2023-03-19T10:58:19.868Z,13.50
2023-03-19T11:00:48.742Z,13.98
2023-03-19T11:03:33.320Z,13.23
2023-03-19T11:06:31.266Z,13.05
2023-03-19T11:09:03.450Z,14.20
2023-03-19T11:11:36.820Z,13.55
2023-03-19T11:14:09.523Z,14.50
2023-03-19T11:16:55.020Z,13.45
2023-03-19T11:19:26.469Z,14.07
2023-03-19T11:22:01.431Z,14.80
2023-03-19T11:24:31.322Z,13.27
2023-03-19T11:26:58.496Z,14.32
2023-03-19T11:29:28.232Z,14.20
2023-03-19T11:32:21.313Z,13.95
2023-03-19T11:35:10.900Z,13.30
2023-03-19T11:37:49.635Z,15.10
2023-03-19T11:40:31.926Z,13.60
2023-03-19T11:43:00.612Z,14.35
2023-03-19T11:45:47.451Z,13.75
2023-03-19T11:48:30.378Z,14.57
2023-03-19T11:51:16.186Z,13.57
2023-03-19T11:53:58.102Z,13.10
2023-03-19T11:56:43.124Z,13.18
2023-03-19T11:59:31.232Z,13.80
2023-03-19T12:02:28.470Z,14.52
2023-03-19T12:07:22.638Z,14.13
2023-03-19T12:10:10.145Z,13.98
2023-03-19T12:12:49.877Z,13.60
2023-03-19T12:15:22.930Z,14.55
2023-03-19T12:18:07.786Z,15.45
2023-03-19T12:20:48.767Z,14.07
2023-03-19T12:23:24.409Z,14.43
2023-03-19T12:26:00.348Z,14.52
2023-03-19T12:28:30.741Z,14.27
2023-03-19T12:31:09.646Z,14.45
2023-03-19T12:33:56.681Z,15.05
2023-03-19T12:36:29.455Z,14.93
2023-03-19T12:39:05.426Z,15.45
2023-03-19T12:41:35.636Z,14.00
2023-03-19T12:44:20.134Z,14.88
2023-03-19T12:47:05.301Z,13.90
2023-03-19T12:49:52.418Z,14.23
2023-03-19T12:52:19.037Z,14.55
2023-03-19T12:54:53.323Z,14.77
2023-03-19T12:57:35.589Z,14.82
2023-03-19T13:00:10.116Z,16.52
2023-03-19T13:02:52.195Z,15.45
2023-03-19T13:05:39.860Z,16.52
2023-03-19T13:08:23.602Z,15.35
2023-03-19T13:10:50.295Z,15.27
2023-03-19T13:13:27.108Z,14.80
2023-03-19T13:15:59.258Z,15.55
2023-03-19T13:18:27.917Z,15.70
2023-03-19T13:21:29.839Z,16.92
2023-03-19T13:24:09.064Z,15.48
2023-03-19T13:26:36.529Z,16.83
2023-03-19T13:29:17.076Z,16.67
2023-03-19T13:31:44.141Z,14.43
2023-03-19T13:34:22.065Z,14.40
2023-03-19T13:36:55.256Z,14.52
2023-03-19T13:39:28.143Z,16.02
2023-03-19T13:42:07.854Z,15.20
2023-03-19T13:44:41.398Z,16.98
2023-03-19T13:47:38.381Z,16.13
2023-03-19T13:50:06.103Z,16.40
2023-03-19T13:52:32.780Z,17.02
2023-03-19T13:55:31.200Z,16.67
2023-03-19T13:58:17.937Z,15.45
2023-03-19T14:00:45.155Z,16.70
2023-03-19T14:03:29.980Z,16.58
2023-03-19T14:05:59.263Z,16.58
2023-03-19T14:08:29.960Z,15.90
2023-03-19T14:11:03.210Z,16.60
2023-03-19T14:13:45.063Z,15.88
2023-03-19T14:16:27.396Z,16.00
2023-03-19T14:19:00.457Z,17.20
2023-03-19T14:21:46.511Z,16.33
2023-03-19T14:27:32.881Z,16.38
2023-03-19T14:30:09.411Z,16.02
2023-03-19T14:35:14.935Z,16.48
2023-03-19T14:37:50.912Z,17.17
2023-03-19T14:40:27.033Z,16.63
2023-03-19T14:43:02.959Z,17.08
2023-03-19T14:45:49.677Z,16.85
2023-03-19T14:51:14.391Z,15.90
2023-03-19T14:53:46.404Z,16.00
2023-03-19T14:56:16.033Z,15.68
2023-03-19T14:58:52.960Z,15.32
2023-03-19T15:01:21.561Z,16.05
2023-03-19T15:03:55.500Z,15.75
2023-03-19T15:06:22.679Z,15.60
2023-03-19T15:08:50.182Z,14.65
2023-03-19T15:11:34.635Z,13.93
2023-03-19T15:14:23.467Z,13.73
2023-03-19T15:17:13.694Z,13.75
2023-03-19T15:19:40.996Z,13.93
